sensor_id;sensor_type;location;lat;lon;timestamp;P1;durP1;ratioP1;P2;durP2;ratioP2
71187;SDS011;58893;53.130;8.158;2023-04-28T00:00:25;9.73;;;5.77;;
71187;SDS011;58893;53.130;8.158;2023-04-28T00:02:51;17.20;;;8.03;;
71187;SDS011;58893;53.130;8.158;2023-04-28T00:05:18;15.33;;;7.63;;
71187;SDS011;58893;53.130;8.158;2023-04-28T00:07:43;11.60;;;5.30;;
71187;SDS011;58893;53.130;8.158;2023-04-28T00:10:10;12.17;;;6.23;;
71187;SDS011;58893;53.130;8.158;2023-04-28T00:12:35;10.87;;;5.87;;
71187;SDS011;58893;53.130;8.158;2023-04-28T00:15:01;11.30;;;6.77;;
71187;SDS011;58893;53.130;8.158;2023-04-28T00:17:27;15.73;;;6.33;;
71187;SDS011;58893;53.130;8.158;2023-04-28T00:19:53;13.23;;;6.23;;
71187;SDS011;58893;53.130;8.158;2023-04-28T00:22:19;18.70;;;7.30;;
71187;SDS011;58893;53.130;8.158;2023-04-28T00:24:44;13.37;;;7.03;;
71187;SDS011;58893;53.130;8.158;2023-04-28T00:27:10;12.50;;;6.67;;
71187;SDS011;58893;53.130;8.158;2023-04-28T00:29:36;13.10;;;6.80;;
71187;SDS011;58893;53.130;8.158;2023-04-28T00:32:01;11.07;;;6.57;;
71187;SDS011;58893;53.130;8.158;2023-04-28T00:34:27;13.40;;;6.60;;
71187;SDS011;58893;53.130;8.158;2023-04-28T00:36:57;15.70;;;7.53;;
71187;SDS011;58893;53.130;8.158;2023-04-28T00:39:22;13.17;;;6.57;;
71187;SDS011;58893;53.130;8.158;2023-04-28T00:41:49;14.63;;;6.87;;
71187;SDS011;58893;53.130;8.158;2023-04-28T00:44:15;19.90;;;8.60;;
71187;SDS011;58893;53.130;8.158;2023-04-28T00:46:41;15.10;;;7.87;;
71187;SDS011;58893;53.130;8.158;2023-04-28T00:49:07;13.30;;;6.70;;
71187;SDS011;58893;53.130;8.158;2023-04-28T00:51:33;13.00;;;6.53;;
71187;SDS011;58893;53.130;8.158;2023-04-28T00:53:59;22.17;;;8.47;;
71187;SDS011;58893;53.130;8.158;2023-04-28T00:56:25;19.70;;;6.90;;
71187;SDS011;58893;53.130;8.158;2023-04-28T00:58:55;16.57;;;7.67;;
71187;SDS011;58893;53.130;8.158;2023-04-28T01:01:21;15.03;;;6.47;;
71187;SDS011;58893;53.130;8.158;2023-04-28T01:03:46;17.53;;;8.37;;
71187;SDS011;58893;53.130;8.158;2023-04-28T01:06:13;12.47;;;6.50;;
71187;SDS011;58893;53.130;8.158;2023-04-28T01:08:40;18.80;;;8.23;;
71187;SDS011;58893;53.130;8.158;2023-04-28T01:11:07;15.97;;;8.60;;
71187;SDS011;58893;53.130;8.158;2023-04-28T01:13:37;16.07;;;7.60;;
71187;SDS011;58893;53.130;8.158;2023-04-28T01:16:04;18.73;;;7.53;;
71187;SDS011;58893;53.130;8.158;2023-04-28T01:18:30;16.67;;;8.97;;
71187;SDS011;58893;53.130;8.158;2023-04-28T01:20:56;21.47;;;8.20;;
71187;SDS011;58893;53.130;8.158;2023-04-28T01:23:22;18.10;;;9.30;;
71187;SDS011;58893;53.130;8.158;2023-04-28T01:25:47;17.50;;;8.03;;
71187;SDS011;58893;53.130;8.158;2023-04-28T01:28:13;14.20;;;8.30;;
71187;SDS011;58893;53.130;8.158;2023-04-28T01:30:38;16.10;;;8.03;;
71187;SDS011;58893;53.130;8.158;2023-04-28T01:33:04;18.03;;;7.30;;
71187;SDS011;58893;53.130;8.158;2023-04-28T01:35:30;15.40;;;7.97;;
71187;SDS011;58893;53.130;8.158;2023-04-28T01:37:56;15.63;;;7.67;;
71187;SDS011;58893;53.130;8.158;2023-04-28T01:40:21;21.23;;;8.63;;
71187;SDS011;58893;53.130;8.158;2023-04-28T01:42:47;22.83;;;8.20;;
71187;SDS011;58893;53.130;8.158;2023-04-28T01:45:12;16.70;;;8.60;;
71187;SDS011;58893;53.130;8.158;2023-04-28T01:47:38;14.20;;;7.47;;
71187;SDS011;58893;53.130;8.158;2023-04-28T01:50:04;19.47;;;7.90;;
71187;SDS011;58893;53.130;8.158;2023-04-28T01:52:30;17.80;;;9.07;;
71187;SDS011;58893;53.130;8.158;2023-04-28T01:54:56;20.27;;;9.07;;
71187;SDS011;58893;53.130;8.158;2023-04-28T01:57:21;18.90;;;7.37;;
71187;SDS011;58893;53.130;8.158;2023-04-28T01:59:47;18.63;;;8.17;;
71187;SDS011;58893;53.130;8.158;2023-04-28T02:02:12;15.83;;;8.30;;
71187;SDS011;58893;53.130;8.158;2023-04-28T02:04:38;17.97;;;8.60;;
71187;SDS011;58893;53.130;8.158;2023-04-28T02:07:04;12.63;;;6.87;;
71187;SDS011;58893;53.130;8.158;2023-04-28T02:09:30;15.07;;;7.60;;
71187;SDS011;58893;53.130;8.158;2023-04-28T02:11:56;19.60;;;7.83;;
71187;SDS011;58893;53.130;8.158;2023-04-28T02:14:23;18.67;;;9.10;;
71187;SDS011;58893;53.130;8.158;2023-04-28T02:16:49;20.10;;;7.90;;
71187;SDS011;58893;53.130;8.158;2023-04-28T02:19:15;21.30;;;8.70;;
71187;SDS011;58893;53.130;8.158;2023-04-28T02:21:41;20.20;;;9.30;;
71187;SDS011;58893;53.130;8.158;2023-04-28T02:24:07;22.63;;;8.73;;
71187;SDS011;58893;53.130;8.158;2023-04-28T02:26:33;18.90;;;8.30;;
71187;SDS011;58893;53.130;8.158;2023-04-28T02:28:59;15.93;;;8.10;;
71187;SDS011;58893;53.130;8.158;2023-04-28T02:31:25;21.00;;;9.47;;
71187;SDS011;58893;53.130;8.158;2023-04-28T02:33:51;17.47;;;9.27;;
71187;SDS011;58893;53.130;8.158;2023-04-28T02:36:17;22.53;;;8.90;;
71187;SDS011;58893;53.130;8.158;2023-04-28T02:38:42;18.17;;;9.40;;
71187;SDS011;58893;53.130;8.158;2023-04-28T02:41:09;18.77;;;9.77;;
71187;SDS011;58893;53.130;8.158;2023-04-28T02:43:34;24.13;;;10.00;;
71187;SDS011;58893;53.130;8.158;2023-04-28T02:46:01;18.60;;;9.40;;
71187;SDS011;58893;53.130;8.158;2023-04-28T02:48:28;22.27;;;9.33;;
71187;SDS011;58893;53.130;8.158;2023-04-28T02:50:54;23.90;;;9.27;;
71187;SDS011;58893;53.130;8.158;2023-04-28T02:53:20;18.27;;;8.77;;
71187;SDS011;58893;53.130;8.158;2023-04-28T02:55:46;24.03;;;10.00;;
71187;SDS011;58893;53.130;8.158;2023-04-28T02:58:11;22.73;;;8.10;;
71187;SDS011;58893;53.130;8.158;2023-04-28T03:00:37;29.00;;;9.70;;
71187;SDS011;58893;53.130;8.158;2023-04-28T03:03:03;20.97;;;8.97;;
71187;SDS011;58893;53.130;8.158;2023-04-28T03:05:28;19.03;;;9.30;;
71187;SDS011;58893;53.130;8.158;2023-04-28T03:07:54;18.80;;;8.73;;
71187;SDS011;58893;53.130;8.158;2023-04-28T03:10:20;18.77;;;8.17;;
71187;SDS011;58893;53.130;8.158;2023-04-28T03:12:46;19.77;;;9.03;;
71187;SDS011;58893;53.130;8.158;2023-04-28T03:15:12;21.30;;;9.23;;
71187;SDS011;58893;53.130;8.158;2023-04-28T03:17:37;14.90;;;7.87;;
71187;SDS011;58893;53.130;8.158;2023-04-28T03:20:06;17.10;;;8.20;;
71187;SDS011;58893;53.130;8.158;2023-04-28T03:22:32;15.20;;;8.27;;
71187;SDS011;58893;53.130;8.158;2023-04-28T03:24:58;21.47;;;9.00;;
71187;SDS011;58893;53.130;8.158;2023-04-28T03:27:24;17.00;;;8.33;;
71187;SDS011;58893;53.130;8.158;2023-04-28T03:29:50;18.03;;;7.87;;
71187;SDS011;58893;53.130;8.158;2023-04-28T03:32:16;21.50;;;8.50;;
71187;SDS011;58893;53.130;8.158;2023-04-28T03:34:41;16.60;;;8.70;;
71187;SDS011;58893;53.130;8.158;2023-04-28T03:37:07;15.87;;;8.30;;
71187;SDS011;58893;53.130;8.158;2023-04-28T03:39:33;22.80;;;9.50;;
71187;SDS011;58893;53.130;8.158;2023-04-28T03:41:58;19.40;;;8.70;;
71187;SDS011;58893;53.130;8.158;2023-04-28T03:44:25;15.67;;;7.97;;
71187;SDS011;58893;53.130;8.158;2023-04-28T03:46:50;18.43;;;9.70;;
71187;SDS011;58893;53.130;8.158;2023-04-28T03:49:16;18.70;;;8.67;;
71187;SDS011;58893;53.130;8.158;2023-04-28T03:51:41;15.67;;;7.77;;
71187;SDS011;58893;53.130;8.158;2023-04-28T03:54:07;21.67;;;8.77;;
71187;SDS011;58893;53.130;8.158;2023-04-28T03:56:33;16.63;;;8.50;;
71187;SDS011;58893;53.130;8.158;2023-04-28T03:58:59;29.83;;;8.43;;
71187;SDS011;58893;53.130;8.158;2023-04-28T04:01:24;19.07;;;7.57;;
71187;SDS011;58893;53.130;8.158;2023-04-28T04:03:50;18.53;;;8.07;;
71187;SDS011;58893;53.130;8.158;2023-04-28T04:06:16;17.40;;;7.90;;
71187;SDS011;58893;53.130;8.158;2023-04-28T04:08:42;17.30;;;9.00;;
71187;SDS011;58893;53.130;8.158;2023-04-28T04:11:07;23.53;;;9.00;;
71187;SDS011;58893;53.130;8.158;2023-04-28T04:13:33;15.13;;;7.47;;
71187;SDS011;58893;53.130;8.158;2023-04-28T04:15:59;17.60;;;7.23;;
71187;SDS011;58893;53.130;8.158;2023-04-28T04:18:24;18.70;;;7.70;;
71187;SDS011;58893;53.130;8.158;2023-04-28T04:20:51;13.83;;;6.90;;
71187;SDS011;58893;53.130;8.158;2023-04-28T04:23:18;17.80;;;8.17;;
71187;SDS011;58893;53.130;8.158;2023-04-28T04:25:43;14.07;;;7.60;;
71187;SDS011;58893;53.130;8.158;2023-04-28T04:28:09;14.63;;;6.53;;
71187;SDS011;58893;53.130;8.158;2023-04-28T04:30:35;14.00;;;6.70;;
71187;SDS011;58893;53.130;8.158;2023-04-28T04:33:01;17.13;;;7.37;;
71187;SDS011;58893;53.130;8.158;2023-04-28T04:35:26;18.43;;;8.40;;
71187;SDS011;58893;53.130;8.158;2023-04-28T04:37:52;18.17;;;7.43;;
71187;SDS011;58893;53.130;8.158;2023-04-28T04:40:18;20.80;;;8.40;;
71187;SDS011;58893;53.130;8.158;2023-04-28T04:42:43;13.97;;;8.00;;
71187;SDS011;58893;53.130;8.158;2023-04-28T04:45:09;16.80;;;7.60;;
71187;SDS011;58893;53.130;8.158;2023-04-28T04:47:35;21.33;;;6.63;;
71187;SDS011;58893;53.130;8.158;2023-04-28T04:50:00;12.70;;;5.90;;
71187;SDS011;58893;53.130;8.158;2023-04-28T04:52:26;13.37;;;6.47;;
71187;SDS011;58893;53.130;8.158;2023-04-28T04:54:53;13.70;;;6.60;;
71187;SDS011;58893;53.130;8.158;2023-04-28T04:57:20;16.60;;;8.33;;
71187;SDS011;58893;53.130;8.158;2023-04-28T04:59:45;28.63;;;6.40;;
71187;SDS011;58893;53.130;8.158;2023-04-28T05:02:11;13.57;;;7.30;;
71187;SDS011;58893;53.130;8.158;2023-04-28T05:04:37;18.87;;;7.60;;
71187;SDS011;58893;53.130;8.158;2023-04-28T05:07:02;17.80;;;7.50;;
71187;SDS011;58893;53.130;8.158;2023-04-28T05:09:28;16.20;;;7.90;;
71187;SDS011;58893;53.130;8.158;2023-04-28T05:11:54;15.63;;;7.37;;
71187;SDS011;58893;53.130;8.158;2023-04-28T05:14:20;17.20;;;7.27;;
71187;SDS011;58893;53.130;8.158;2023-04-28T05:16:46;14.67;;;6.40;;
71187;SDS011;58893;53.130;8.158;2023-04-28T05:19:11;15.17;;;7.37;;
71187;SDS011;58893;53.130;8.158;2023-04-28T05:21:37;12.17;;;6.70;;
71187;SDS011;58893;53.130;8.158;2023-04-28T05:24:03;12.00;;;6.03;;
71187;SDS011;58893;53.130;8.158;2023-04-28T05:26:29;20.73;;;6.70;;
71187;SDS011;58893;53.130;8.158;2023-04-28T05:28:54;15.33;;;8.00;;
71187;SDS011;58893;53.130;8.158;2023-04-28T05:31:20;16.80;;;6.60;;
71187;SDS011;58893;53.130;8.158;2023-04-28T05:33:45;20.97;;;7.13;;
71187;SDS011;58893;53.130;8.158;2023-04-28T05:36:11;17.27;;;7.00;;
71187;SDS011;58893;53.130;8.158;2023-04-28T05:38:37;12.50;;;5.93;;
71187;SDS011;58893;53.130;8.158;2023-04-28T05:41:03;16.13;;;6.80;;
71187;SDS011;58893;53.130;8.158;2023-04-28T05:43:29;15.00;;;7.13;;
71187;SDS011;58893;53.130;8.158;2023-04-28T05:45:54;12.17;;;6.03;;
71187;SDS011;58893;53.130;8.158;2023-04-28T05:48:20;10.57;;;5.70;;
71187;SDS011;58893;53.130;8.158;2023-04-28T05:50:46;12.87;;;7.00;;
71187;SDS011;58893;53.130;8.158;2023-04-28T05:53:11;14.67;;;5.93;;
71187;SDS011;58893;53.130;8.158;2023-04-28T05:55:37;11.60;;;5.90;;
71187;SDS011;58893;53.130;8.158;2023-04-28T05:58:02;12.80;;;5.63;;
71187;SDS011;58893;53.130;8.158;2023-04-28T06:00:28;9.80;;;5.90;;
71187;SDS011;58893;53.130;8.158;2023-04-28T06:02:54;13.30;;;6.80;;
71187;SDS011;58893;53.130;8.158;2023-04-28T06:05:20;12.77;;;7.03;;
71187;SDS011;58893;53.130;8.158;2023-04-28T06:07:46;14.73;;;6.00;;
71187;SDS011;58893;53.130;8.158;2023-04-28T06:10:12;11.63;;;5.70;;
71187;SDS011;58893;53.130;8.158;2023-04-28T06:12:38;13.97;;;6.07;;
71187;SDS011;58893;53.130;8.158;2023-04-28T06:15:04;12.67;;;6.80;;
71187;SDS011;58893;53.130;8.158;2023-04-28T06:17:30;15.60;;;6.03;;
71187;SDS011;58893;53.130;8.158;2023-04-28T06:19:57;13.80;;;5.67;;
71187;SDS011;58893;53.130;8.158;2023-04-28T06:22:26;11.53;;;5.80;;
71187;SDS011;58893;53.130;8.158;2023-04-28T06:24:51;15.80;;;6.43;;
71187;SDS011;58893;53.130;8.158;2023-04-28T06:27:17;16.73;;;5.80;;
71187;SDS011;58893;53.130;8.158;2023-04-28T06:29:43;8.53;;;5.80;;
71187;SDS011;58893;53.130;8.158;2023-04-28T06:32:09;10.53;;;5.43;;
71187;SDS011;58893;53.130;8.158;2023-04-28T06:34:34;13.20;;;6.50;;
71187;SDS011;58893;53.130;8.158;2023-04-28T06:37:01;12.83;;;5.10;;
71187;SDS011;58893;53.130;8.158;2023-04-28T06:39:27;12.70;;;6.17;;
71187;SDS011;58893;53.130;8.158;2023-04-28T06:41:52;10.30;;;4.97;;
71187;SDS011;58893;53.130;8.158;2023-04-28T06:44:18;12.03;;;5.70;;
71187;SDS011;58893;53.130;8.158;2023-04-28T06:46:43;12.07;;;6.20;;
71187;SDS011;58893;53.130;8.158;2023-04-28T06:49:09;9.27;;;4.70;;
71187;SDS011;58893;53.130;8.158;2023-04-28T06:51:35;17.90;;;6.27;;
71187;SDS011;58893;53.130;8.158;2023-04-28T06:54:01;11.60;;;5.60;;
71187;SDS011;58893;53.130;8.158;2023-04-28T06:56:27;10.93;;;5.80;;
71187;SDS011;58893;53.130;8.158;2023-04-28T06:58:55;10.67;;;5.57;;
71187;SDS011;58893;53.130;8.158;2023-04-28T07:01:21;10.33;;;5.50;;
71187;SDS011;58893;53.130;8.158;2023-04-28T07:03:47;11.23;;;4.77;;
71187;SDS011;58893;53.130;8.158;2023-04-28T07:06:13;9.17;;;4.63;;
71187;SDS011;58893;53.130;8.158;2023-04-28T07:08:40;9.67;;;4.93;;
71187;SDS011;58893;53.130;8.158;2023-04-28T07:11:08;10.17;;;5.33;;
71187;SDS011;58893;53.130;8.158;2023-04-28T07:13:33;9.17;;;4.60;;
71187;SDS011;58893;53.130;8.158;2023-04-28T07:15:59;9.40;;;5.27;;
71187;SDS011;58893;53.130;8.158;2023-04-28T07:18:25;11.37;;;6.00;;
71187;SDS011;58893;53.130;8.158;2023-04-28T07:20:51;18.53;;;5.60;;
71187;SDS011;58893;53.130;8.158;2023-04-28T07:23:17;11.70;;;5.90;;
71187;SDS011;58893;53.130;8.158;2023-04-28T07:25:42;9.43;;;4.93;;
71187;SDS011;58893;53.130;8.158;2023-04-28T07:28:08;8.83;;;5.07;;
71187;SDS011;58893;53.130;8.158;2023-04-28T07:30:34;8.50;;;5.83;;
71187;SDS011;58893;53.130;8.158;2023-04-28T07:33:00;8.60;;;4.67;;
71187;SDS011;58893;53.130;8.158;2023-04-28T07:35:26;12.67;;;4.93;;
71187;SDS011;58893;53.130;8.158;2023-04-28T07:37:52;12.80;;;4.90;;
71187;SDS011;58893;53.130;8.158;2023-04-28T07:40:18;8.63;;;4.87;;
71187;SDS011;58893;53.130;8.158;2023-04-28T07:42:45;8.57;;;5.10;;
71187;SDS011;58893;53.130;8.158;2023-04-28T07:45:11;7.17;;;4.77;;
71187;SDS011;58893;53.130;8.158;2023-04-28T07:47:38;9.40;;;4.40;;
71187;SDS011;58893;53.130;8.158;2023-04-28T07:50:04;6.87;;;4.50;;
71187;SDS011;58893;53.130;8.158;2023-04-28T07:52:31;8.23;;;4.97;;
71187;SDS011;58893;53.130;8.158;2023-04-28T07:54:57;8.50;;;4.20;;
71187;SDS011;58893;53.130;8.158;2023-04-28T07:57:23;10.57;;;5.00;;
71187;SDS011;58893;53.130;8.158;2023-04-28T07:59:50;8.60;;;5.27;;
71187;SDS011;58893;53.130;8.158;2023-04-28T08:02:15;5.40;;;4.07;;
71187;SDS011;58893;53.130;8.158;2023-04-28T08:04:43;8.77;;;4.93;;
71187;SDS011;58893;53.130;8.158;2023-04-28T08:07:08;9.93;;;5.07;;
71187;SDS011;58893;53.130;8.158;2023-04-28T08:09:34;7.67;;;4.93;;
71187;SDS011;58893;53.130;8.158;2023-04-28T08:12:00;7.23;;;4.40;;
71187;SDS011;58893;53.130;8.158;2023-04-28T08:14:26;7.77;;;4.30;;
71187;SDS011;58893;53.130;8.158;2023-04-28T08:16:52;8.43;;;4.50;;
71187;SDS011;58893;53.130;8.158;2023-04-28T08:19:18;8.57;;;4.50;;
71187;SDS011;58893;53.130;8.158;2023-04-28T08:21:44;8.90;;;4.40;;
71187;SDS011;58893;53.130;8.158;2023-04-28T08:24:10;7.57;;;4.27;;
71187;SDS011;58893;53.130;8.158;2023-04-28T08:26:36;9.90;;;5.37;;
71187;SDS011;58893;53.130;8.158;2023-04-28T08:29:02;14.27;;;5.13;;
71187;SDS011;58893;53.130;8.158;2023-04-28T08:31:28;8.37;;;4.50;;
71187;SDS011;58893;53.130;8.158;2023-04-28T08:33:54;8.40;;;4.10;;
71187;SDS011;58893;53.130;8.158;2023-04-28T08:36:20;10.90;;;4.90;;
71187;SDS011;58893;53.130;8.158;2023-04-28T08:38:47;9.10;;;4.30;;
71187;SDS011;58893;53.130;8.158;2023-04-28T08:41:16;15.17;;;4.67;;
71187;SDS011;58893;53.130;8.158;2023-04-28T08:43:43;10.57;;;5.40;;
71187;SDS011;58893;53.130;8.158;2023-04-28T08:46:09;9.23;;;4.80;;
71187;SDS011;58893;53.130;8.158;2023-04-28T08:48:39;21.43;;;5.00;;
71187;SDS011;58893;53.130;8.158;2023-04-28T08:51:06;12.30;;;5.77;;
71187;SDS011;58893;53.130;8.158;2023-04-28T08:53:35;8.23;;;4.77;;
71187;SDS011;58893;53.130;8.158;2023-04-28T08:56:03;11.27;;;5.00;;
71187;SDS011;58893;53.130;8.158;2023-04-28T08:58:31;7.70;;;5.03;;
71187;SDS011;58893;53.130;8.158;2023-04-28T09:01:01;15.50;;;5.07;;
71187;SDS011;58893;53.130;8.158;2023-04-28T09:03:28;16.17;;;4.20;;
71187;SDS011;58893;53.130;8.158;2023-04-28T09:05:54;10.17;;;5.00;;
71187;SDS011;58893;53.130;8.158;2023-04-28T09:08:20;10.30;;;4.97;;
71187;SDS011;58893;53.130;8.158;2023-04-28T09:10:46;10.87;;;5.47;;
71187;SDS011;58893;53.130;8.158;2023-04-28T09:13:23;14.53;;;5.00;;
71187;SDS011;58893;53.130;8.158;2023-04-28T09:15:49;8.50;;;5.07;;
71187;SDS011;58893;53.130;8.158;2023-04-28T09:18:16;9.40;;;5.33;;
71187;SDS011;58893;53.130;8.158;2023-04-28T09:20:41;11.97;;;6.23;;
71187;SDS011;58893;53.130;8.158;2023-04-28T09:23:15;31.83;;;5.30;;
71187;SDS011;58893;53.130;8.158;2023-04-28T09:26:01;7.40;;;4.60;;
71187;SDS011;58893;53.130;8.158;2023-04-28T09:28:29;6.03;;;4.47;;
71187;SDS011;58893;53.130;8.158;2023-04-28T09:30:55;9.80;;;5.20;;
71187;SDS011;58893;53.130;8.158;2023-04-28T09:33:21;14.03;;;6.27;;
71187;SDS011;58893;53.130;8.158;2023-04-28T09:35:47;9.70;;;4.70;;
71187;SDS011;58893;53.130;8.158;2023-04-28T09:38:14;8.57;;;5.27;;
71187;SDS011;58893;53.130;8.158;2023-04-28T09:41:13;11.37;;;6.03;;
71187;SDS011;58893;53.130;8.158;2023-04-28T09:43:34;13.90;;;5.60;;
71187;SDS011;58893;53.130;8.158;2023-04-28T09:46:01;9.33;;;5.10;;
71187;SDS011;58893;53.130;8.158;2023-04-28T09:48:29;10.10;;;4.43;;
71187;SDS011;58893;53.130;8.158;2023-04-28T09:50:57;15.33;;;5.13;;
71187;SDS011;58893;53.130;8.158;2023-04-28T09:53:23;8.30;;;5.73;;
71187;SDS011;58893;53.130;8.158;2023-04-28T09:55:53;14.53;;;5.57;;
71187;SDS011;58893;53.130;8.158;2023-04-28T09:58:21;9.20;;;5.30;;
71187;SDS011;58893;53.130;8.158;2023-04-28T10:00:51;10.50;;;5.70;;
71187;SDS011;58893;53.130;8.158;2023-04-28T10:03:20;10.00;;;5.83;;
71187;SDS011;58893;53.130;8.158;2023-04-28T10:05:47;9.30;;;5.93;;
71187;SDS011;58893;53.130;8.158;2023-04-28T10:08:13;11.50;;;6.20;;
71187;SDS011;58893;53.130;8.158;2023-04-28T10:10:40;12.60;;;6.80;;
71187;SDS011;58893;53.130;8.158;2023-04-28T10:13:07;12.90;;;5.60;;
71187;SDS011;58893;53.130;8.158;2023-04-28T10:15:33;13.50;;;5.90;;
71187;SDS011;58893;53.130;8.158;2023-04-28T10:17:59;15.83;;;6.27;;
71187;SDS011;58893;53.130;8.158;2023-04-28T10:20:27;13.57;;;6.10;;
71187;SDS011;58893;53.130;8.158;2023-04-28T10:25:40;11.47;;;6.00;;
71187;SDS011;58893;53.130;8.158;2023-04-28T10:28:07;12.13;;;6.13;;
71187;SDS011;58893;53.130;8.158;2023-04-28T10:30:34;13.97;;;5.63;;
71187;SDS011;58893;53.130;8.158;2023-04-28T10:38:08;8.70;;;5.80;;
71187;SDS011;58893;53.130;8.158;2023-04-28T10:40:35;17.87;;;7.50;;
71187;SDS011;58893;53.130;8.158;2023-04-28T10:43:05;11.53;;;6.47;;
71187;SDS011;58893;53.130;8.158;2023-04-28T10:46:15;19.00;;;6.17;;
71187;SDS011;58893;53.130;8.158;2023-04-28T10:58:52;17.13;;;7.30;;
71187;SDS011;58893;53.130;8.158;2023-04-28T11:01:28;14.13;;;5.97;;
71187;SDS011;58893;53.130;8.158;2023-04-28T11:03:56;12.50;;;5.90;;
71187;SDS011;58893;53.130;8.158;2023-04-28T11:06:35;13.97;;;6.70;;
71187;SDS011;58893;53.130;8.158;2023-04-28T11:16:55;15.73;;;6.90;;
71187;SDS011;58893;53.130;8.158;2023-04-28T11:19:25;15.23;;;5.87;;
71187;SDS011;58893;53.130;8.158;2023-04-28T11:21:53;9.87;;;5.80;;
71187;SDS011;58893;53.130;8.158;2023-04-28T11:24:20;12.13;;;7.40;;
71187;SDS011;58893;53.130;8.158;2023-04-28T11:26:49;9.20;;;6.50;;
71187;SDS011;58893;53.130;8.158;2023-04-28T11:29:15;10.97;;;6.40;;
71187;SDS011;58893;53.130;8.158;2023-04-28T11:31:47;14.90;;;7.53;;
71187;SDS011;58893;53.130;8.158;2023-04-28T11:34:18;13.73;;;7.40;;
71187;SDS011;58893;53.130;8.158;2023-04-28T11:36:45;12.10;;;6.97;;
71187;SDS011;58893;53.130;8.158;2023-04-28T11:39:11;10.77;;;6.53;;
71187;SDS011;58893;53.130;8.158;2023-04-28T11:46:47;25.20;;;7.00;;
71187;SDS011;58893;53.130;8.158;2023-04-28T11:49:45;11.60;;;7.27;;
71187;SDS011;58893;53.130;8.158;2023-04-28T11:52:11;16.27;;;6.67;;
71187;SDS011;58893;53.130;8.158;2023-04-28T11:54:37;14.67;;;7.50;;
71187;SDS011;58893;53.130;8.158;2023-04-28T11:57:06;10.07;;;6.60;;
71187;SDS011;58893;53.130;8.158;2023-04-28T11:59:41;18.23;;;8.20;;
71187;SDS011;58893;53.130;8.158;2023-04-28T12:02:07;20.10;;;7.50;;
71187;SDS011;58893;53.130;8.158;2023-04-28T12:04:34;21.23;;;8.33;;
71187;SDS011;58893;53.130;8.158;2023-04-28T12:09:30;10.90;;;6.70;;
71187;SDS011;58893;53.130;8.158;2023-04-28T12:11:58;13.80;;;7.97;;
71187;SDS011;58893;53.130;8.158;2023-04-28T12:14:29;12.20;;;6.80;;
71187;SDS011;58893;53.130;8.158;2023-04-28T12:16:57;16.10;;;7.20;;
71187;SDS011;58893;53.130;8.158;2023-04-28T12:19:22;13.07;;;7.47;;
71187;SDS011;58893;53.130;8.158;2023-04-28T12:22:01;12.20;;;7.90;;
71187;SDS011;58893;53.130;8.158;2023-04-28T12:24:28;17.77;;;7.43;;
71187;SDS011;58893;53.130;8.158;2023-04-28T12:27:11;14.07;;;8.07;;
71187;SDS011;58893;53.130;8.158;2023-04-28T12:29:42;14.57;;;7.87;;
71187;SDS011;58893;53.130;8.158;2023-04-28T12:32:10;13.77;;;7.60;;
71187;SDS011;58893;53.130;8.158;2023-04-28T12:34:36;11.97;;;7.33;;
71187;SDS011;58893;53.130;8.158;2023-04-28T12:37:04;16.90;;;8.07;;
71187;SDS011;58893;53.130;8.158;2023-04-28T12:39:33;16.43;;;9.10;;
71187;SDS011;58893;53.130;8.158;2023-04-28T12:42:00;11.90;;;7.03;;
71187;SDS011;58893;53.130;8.158;2023-04-28T12:44:26;26.60;;;7.60;;
71187;SDS011;58893;53.130;8.158;2023-04-28T12:46:57;25.20;;;7.50;;
71187;SDS011;58893;53.130;8.158;2023-04-28T12:49:23;17.87;;;7.50;;
71187;SDS011;58893;53.130;8.158;2023-04-28T12:51:48;12.70;;;7.93;;
71187;SDS011;58893;53.130;8.158;2023-04-28T12:54:14;12.77;;;7.10;;
71187;SDS011;58893;53.130;8.158;2023-04-28T12:56:40;13.40;;;7.13;;
71187;SDS011;58893;53.130;8.158;2023-04-28T12:59:06;17.23;;;7.73;;
71187;SDS011;58893;53.130;8.158;2023-04-28T13:01:32;18.00;;;7.80;;
71187;SDS011;58893;53.130;8.158;2023-04-28T13:03:57;16.40;;;8.00;;
71187;SDS011;58893;53.130;8.158;2023-04-28T13:06:23;15.30;;;8.83;;
71187;SDS011;58893;53.130;8.158;2023-04-28T13:08:49;15.00;;;7.53;;
71187;SDS011;58893;53.130;8.158;2023-04-28T13:11:14;13.07;;;7.33;;
71187;SDS011;58893;53.130;8.158;2023-04-28T13:13:40;18.90;;;7.87;;
71187;SDS011;58893;53.130;8.158;2023-04-28T13:16:06;15.63;;;8.07;;
71187;SDS011;58893;53.130;8.158;2023-04-28T13:18:32;22.10;;;9.33;;
71187;SDS011;58893;53.130;8.158;2023-04-28T13:20:58;15.43;;;7.93;;
71187;SDS011;58893;53.130;8.158;2023-04-28T13:23:23;14.90;;;8.73;;
71187;SDS011;58893;53.130;8.158;2023-04-28T13:25:49;13.60;;;8.07;;
71187;SDS011;58893;53.130;8.158;2023-04-28T13:28:15;13.50;;;7.43;;
71187;SDS011;58893;53.130;8.158;2023-04-28T13:30:41;16.03;;;8.10;;
71187;SDS011;58893;53.130;8.158;2023-04-28T13:33:06;13.73;;;7.40;;
71187;SDS011;58893;53.130;8.158;2023-04-28T13:35:32;15.83;;;7.70;;
71187;SDS011;58893;53.130;8.158;2023-04-28T13:37:57;23.83;;;8.17;;
71187;SDS011;58893;53.130;8.158;2023-04-28T13:40:27;14.90;;;8.27;;
71187;SDS011;58893;53.130;8.158;2023-04-28T13:42:53;14.37;;;7.90;;
71187;SDS011;58893;53.130;8.158;2023-04-28T13:45:19;21.60;;;9.17;;
71187;SDS011;58893;53.130;8.158;2023-04-28T13:47:45;15.70;;;9.10;;
71187;SDS011;58893;53.130;8.158;2023-04-28T13:50:12;14.97;;;8.43;;
71187;SDS011;58893;53.130;8.158;2023-04-28T13:52:38;19.83;;;9.20;;
71187;SDS011;58893;53.130;8.158;2023-04-28T13:55:03;18.87;;;10.57;;
71187;SDS011;58893;53.130;8.158;2023-04-28T13:57:29;15.90;;;9.07;;
71187;SDS011;58893;53.130;8.158;2023-04-28T13:59:55;15.60;;;8.77;;
71187;SDS011;58893;53.130;8.158;2023-04-28T14:02:21;16.87;;;9.50;;
71187;SDS011;58893;53.130;8.158;2023-04-28T14:04:47;18.83;;;9.10;;
71187;SDS011;58893;53.130;8.158;2023-04-28T14:07:14;20.87;;;11.10;;
71187;SDS011;58893;53.130;8.158;2023-04-28T14:09:40;15.40;;;9.77;;
71187;SDS011;58893;53.130;8.158;2023-04-28T14:12:05;20.70;;;10.97;;
71187;SDS011;58893;53.130;8.158;2023-04-28T14:14:31;20.70;;;9.83;;
71187;SDS011;58893;53.130;8.158;2023-04-28T14:16:57;20.63;;;9.80;;
71187;SDS011;58893;53.130;8.158;2023-04-28T14:19:23;14.87;;;9.20;;
71187;SDS011;58893;53.130;8.158;2023-04-28T14:21:51;15.07;;;9.47;;
71187;SDS011;58893;53.130;8.158;2023-04-28T14:24:17;18.23;;;10.63;;
71187;SDS011;58893;53.130;8.158;2023-04-28T14:26:44;17.50;;;9.17;;
71187;SDS011;58893;53.130;8.158;2023-04-28T14:29:10;29.63;;;9.03;;
71187;SDS011;58893;53.130;8.158;2023-04-28T14:31:36;25.50;;;9.40;;
71187;SDS011;58893;53.130;8.158;2023-04-28T14:34:02;20.83;;;8.80;;
71187;SDS011;58893;53.130;8.158;2023-04-28T14:36:29;17.53;;;9.00;;
71187;SDS011;58893;53.130;8.158;2023-04-28T14:38:57;17.60;;;9.67;;
71187;SDS011;58893;53.130;8.158;2023-04-28T14:41:23;20.70;;;9.93;;
71187;SDS011;58893;53.130;8.158;2023-04-28T14:43:49;24.83;;;10.07;;
71187;SDS011;58893;53.130;8.158;2023-04-28T14:46:15;16.97;;;9.47;;
71187;SDS011;58893;53.130;8.158;2023-04-28T14:48:43;20.80;;;11.17;;
71187;SDS011;58893;53.130;8.158;2023-04-28T14:51:09;18.27;;;10.50;;
71187;SDS011;58893;53.130;8.158;2023-04-28T14:53:35;16.53;;;9.50;;
71187;SDS011;58893;53.130;8.158;2023-04-28T14:56:00;20.73;;;10.63;;
71187;SDS011;58893;53.130;8.158;2023-04-28T14:58:27;19.37;;;10.80;;
71187;SDS011;58893;53.130;8.158;2023-04-28T15:00:53;16.73;;;10.27;;
71187;SDS011;58893;53.130;8.158;2023-04-28T15:03:19;17.07;;;9.80;;
71187;SDS011;58893;53.130;8.158;2023-04-28T15:05:44;15.60;;;9.73;;